createdAt,value
2018-03-14T00:01:22.955Z,13.00
2018-03-14T00:03:50.366Z,13.50
2018-03-14T00:06:17.813Z,11.93
2018-03-14T00:08:45.230Z,11.40
2018-03-14T00:11:12.656Z,12.00
2018-03-14T00:13:40.083Z,11.25
2018-03-14T00:16:07.525Z,11.95
2018-03-14T00:18:34.956Z,12.75
2018-03-14T00:21:02.390Z,13.43
2018-03-14T00:23:29.836Z,12.48
2018-03-14T00:25:57.251Z,13.70
2018-03-14T00:28:24.762Z,14.80
2018-03-14T00:30:52.197Z,14.93
2018-03-14T00:33:19.636Z,15.85
2018-03-14T00:35:47.067Z,16.67
2018-03-14T00:38:14.498Z,14.43
2018-03-14T00:40:58.992Z,15.57
2018-03-14T00:43:26.436Z,13.82
2018-03-14T00:45:53.871Z,16.45
2018-03-14T00:48:21.304Z,15.27
2018-03-14T00:50:48.727Z,16.12
2018-03-14T00:53:16.165Z,15.50
2018-03-14T00:55:43.588Z,15.20
2018-03-14T00:58:11.075Z,16.10
2018-03-14T01:00:38.582Z,17.27
2018-03-14T01:03:06.046Z,15.43
2018-03-14T01:05:33.477Z,16.10
2018-03-14T01:08:00.931Z,15.00
2018-03-14T01:10:28.411Z,15.30
2018-03-14T01:12:55.860Z,16.05
2018-03-14T01:15:23.334Z,15.05
2018-03-14T01:18:07.353Z,13.85
2018-03-14T01:20:34.796Z,15.25
2018-03-14T01:23:02.223Z,15.40
2018-03-14T01:25:29.768Z,14.98
2018-03-14T01:27:57.518Z,14.40
2018-03-14T01:30:24.943Z,13.43
2018-03-14T01:32:52.380Z,14.30
2018-03-14T01:35:19.891Z,12.82
2018-03-14T01:37:47.331Z,13.52
2018-03-14T01:40:14.817Z,12.32
2018-03-14T01:42:42.258Z,12.70
2018-03-14T01:45:09.715Z,13.38
2018-03-14T01:47:37.276Z,12.18
2018-03-14T01:50:04.712Z,11.77
2018-03-14T01:52:32.146Z,11.25
2018-03-14T01:54:59.860Z,13.70
2018-03-14T01:57:27.312Z,12.37
2018-03-14T01:59:54.772Z,11.48
2018-03-14T02:02:22.203Z,12.02
2018-03-14T02:04:49.646Z,12.13
2018-03-14T02:07:17.071Z,11.02
2018-03-14T02:09:44.511Z,12.68
2018-03-14T02:12:11.983Z,12.57
2018-03-14T02:14:39.431Z,13.07
2018-03-14T02:17:07.076Z,13.38
2018-03-14T02:19:34.688Z,14.90
2018-03-14T02:22:02.184Z,13.10
2018-03-14T02:24:29.946Z,13.62
2018-03-14T02:27:00.829Z,13.60
2018-03-14T02:29:28.254Z,13.77
2018-03-14T02:31:55.955Z,14.05
2018-03-14T02:34:23.696Z,15.25
2018-03-14T02:37:01.852Z,15.13
2018-03-14T02:39:29.389Z,16.90
2018-03-14T02:41:56.845Z,15.82
2018-03-14T02:44:24.363Z,14.55
2018-03-14T02:46:51.847Z,13.62
2018-03-14T02:49:19.589Z,15.95
2018-03-14T02:51:47.043Z,16.00
2018-03-14T02:54:14.501Z,15.35
2018-03-14T02:56:41.927Z,15.27
2018-03-14T02:59:09.434Z,15.65
2018-03-14T03:01:36.988Z,15.85
2018-03-14T03:04:04.437Z,18.30
2018-03-14T03:06:31.898Z,15.68
2018-03-14T03:08:59.316Z,15.85
2018-03-14T03:11:26.751Z,16.33
2018-03-14T03:13:54.179Z,15.18
2018-03-14T03:16:21.919Z,15.20
2018-03-14T03:18:49.392Z,15.90
2018-03-14T03:21:16.849Z,15.65
2018-03-14T03:23:44.296Z,13.10
2018-03-14T03:26:11.770Z,15.43
2018-03-14T03:28:39.238Z,14.87
2018-03-14T03:31:06.700Z,15.50
2018-03-14T03:33:34.127Z,15.10
2018-03-14T03:36:01.567Z,16.25
2018-03-14T03:38:29.067Z,16.12
2018-03-14T03:40:56.803Z,17.40
2018-03-14T03:43:24.292Z,15.05
2018-03-14T03:45:51.834Z,14.13
2018-03-14T03:48:19.811Z,16.80
2018-03-14T03:50:47.297Z,18.50
2018-03-14T03:53:14.717Z,18.92
2018-03-14T03:55:45.060Z,15.07
2018-03-14T03:58:12.498Z,14.60
2018-03-14T04:00:40.214Z,16.23
2018-03-14T04:03:07.630Z,16.10
2018-03-14T04:05:35.083Z,16.85
2018-03-14T04:08:02.526Z,16.60
2018-03-14T04:10:29.939Z,15.77
2018-03-14T04:12:58.397Z,17.35
2018-03-14T04:15:25.896Z,16.05
2018-03-14T04:17:56.161Z,16.05
2018-03-14T04:20:23.582Z,14.32
2018-03-14T04:22:51.015Z,17.95
2018-03-14T04:25:18.447Z,15.60
2018-03-14T04:27:45.871Z,15.88
2018-03-14T04:30:13.343Z,15.15
2018-03-14T04:32:40.806Z,13.90
2018-03-14T04:35:08.263Z,13.77
2018-03-14T04:37:35.697Z,14.13
2018-03-14T04:40:03.115Z,13.30
2018-03-14T04:42:30.610Z,12.80
2018-03-14T04:44:58.023Z,15.10
2018-03-14T04:47:25.451Z,14.27
2018-03-14T04:49:52.862Z,12.00
2018-03-14T04:52:20.468Z,15.93
2018-03-14T04:54:47.930Z,15.82
2018-03-14T04:57:15.696Z,12.37
2018-03-14T04:59:43.427Z,11.88
2018-03-14T05:02:10.851Z,11.63
2018-03-14T05:04:38.267Z,10.48
2018-03-14T05:07:05.687Z,14.25
2018-03-14T05:09:33.105Z,14.85
2018-03-14T05:12:00.537Z,13.80
2018-03-14T05:14:27.993Z,12.80
2018-03-14T05:19:48.331Z,15.57
2018-03-14T05:22:15.774Z,18.15
2018-03-14T05:24:43.382Z,20.45
2018-03-14T05:27:10.799Z,26.87
2018-03-14T05:29:38.244Z,24.15
2018-03-14T05:32:08.017Z,13.48
2018-03-14T05:34:35.453Z,12.70
2018-03-14T05:37:03.355Z,12.63
2018-03-14T05:39:30.830Z,11.00
2018-03-14T05:41:58.249Z,13.93
2018-03-14T05:44:25.776Z,12.45
2018-03-14T05:46:54.654Z,13.18
2018-03-14T05:49:22.101Z,12.52
2018-03-14T05:51:49.544Z,13.18
2018-03-14T05:54:17.027Z,13.65
2018-03-14T05:56:44.679Z,13.88
2018-03-14T05:59:12.123Z,14.13
2018-03-14T06:01:39.533Z,13.68
2018-03-14T06:04:06.963Z,14.02
2018-03-14T06:06:34.402Z,14.50
2018-03-14T06:09:01.860Z,12.60
2018-03-14T06:11:29.282Z,15.57
2018-03-14T06:13:56.723Z,12.52
2018-03-14T06:16:24.224Z,13.93
2018-03-14T06:18:51.624Z,12.70
2018-03-14T06:21:19.975Z,15.10
2018-03-14T06:23:47.451Z,15.82
2018-03-14T06:26:14.893Z,15.35
2018-03-14T06:28:42.354Z,15.32
2018-03-14T06:31:09.811Z,14.52
2018-03-14T06:33:37.271Z,14.50
2018-03-14T06:36:07.449Z,16.40
2018-03-14T06:38:34.951Z,15.38
2018-03-14T06:41:02.412Z,15.98
2018-03-14T06:43:29.871Z,16.52
2018-03-14T06:45:59.480Z,16.52
2018-03-14T06:48:26.927Z,13.55
2018-03-14T06:50:54.386Z,13.70
2018-03-14T06:53:21.847Z,11.52
2018-03-14T06:55:49.309Z,12.98
2018-03-14T06:58:28.447Z,12.90
2018-03-14T07:01:07.454Z,13.82
2018-03-14T07:03:46.488Z,11.63
2018-03-14T07:06:15.240Z,11.55
2018-03-14T07:08:42.655Z,13.95
2018-03-14T07:11:10.097Z,10.48
2018-03-14T07:13:37.559Z,10.80
2018-03-14T07:16:05.013Z,11.70
2018-03-14T07:18:32.459Z,9.70
2018-03-14T07:20:59.923Z,10.55
2018-03-14T07:23:27.373Z,10.95
2018-03-14T07:25:54.831Z,9.55
2018-03-14T07:28:22.244Z,8.48
2018-03-14T07:30:49.677Z,9.23
2018-03-14T07:33:17.136Z,8.88
2018-03-14T07:35:44.593Z,9.43
2018-03-14T07:38:12.053Z,8.80
2018-03-14T07:40:39.515Z,8.10
2018-03-14T07:43:07.345Z,7.82
2018-03-14T07:45:34.800Z,7.05
2018-03-14T07:48:02.259Z,8.02
2018-03-14T07:50:29.716Z,7.97
2018-03-14T07:52:57.174Z,7.12
2018-03-14T07:55:24.631Z,8.57
2018-03-14T07:57:52.094Z,7.10
2018-03-14T08:00:19.558Z,4.90
2018-03-14T08:02:49.462Z,7.37
2018-03-14T08:05:16.919Z,5.93
2018-03-14T08:07:44.431Z,6.75
2018-03-14T08:10:11.840Z,6.70
2018-03-14T08:12:39.295Z,6.80
2018-03-14T08:15:10.441Z,6.18
2018-03-14T08:17:37.900Z,5.82
2018-03-14T08:20:05.353Z,6.12
2018-03-14T08:22:32.814Z,5.82
2018-03-14T08:25:00.335Z,6.40
2018-03-14T08:27:27.734Z,7.55
2018-03-14T08:29:55.197Z,5.75
2018-03-14T08:32:22.642Z,5.65
2018-03-14T08:34:50.178Z,7.15
2018-03-14T08:37:17.606Z,5.75
2018-03-14T08:39:45.036Z,5.80
2018-03-14T08:42:12.479Z,6.85
2018-03-14T08:44:39.932Z,5.00
2018-03-14T08:47:07.391Z,5.95
2018-03-14T08:49:34.847Z,6.25
2018-03-14T08:52:02.306Z,6.55
2018-03-14T08:54:29.727Z,6.03
2018-03-14T08:56:57.162Z,4.82
2018-03-14T08:59:24.608Z,5.90
2018-03-14T09:01:54.763Z,6.00
2018-03-14T09:04:22.271Z,6.32
2018-03-14T09:06:49.755Z,4.18
2018-03-14T09:09:18.201Z,4.80
2018-03-14T09:11:45.663Z,4.95
2018-03-14T09:14:13.111Z,4.87
2018-03-14T09:16:40.570Z,5.28
2018-03-14T09:19:08.029Z,3.75
2018-03-14T09:21:36.883Z,3.60
2018-03-14T09:24:04.384Z,3.15
2018-03-14T09:26:31.839Z,2.92
2018-03-14T09:28:59.306Z,3.17
2018-03-14T09:31:26.783Z,3.00
2018-03-14T09:33:57.934Z,3.35
2018-03-14T09:36:25.406Z,3.50
2018-03-14T09:38:52.850Z,3.92
2018-03-14T09:41:20.306Z,3.75
2018-03-14T09:43:47.765Z,3.60
2018-03-14T09:46:15.222Z,3.80
2018-03-14T09:48:42.681Z,3.80
2018-03-14T09:51:10.127Z,3.20
2018-03-14T09:53:37.587Z,3.55
2018-03-14T09:56:05.036Z,4.30
2018-03-14T09:58:32.510Z,2.95
2018-03-14T10:00:59.964Z,5.25
2018-03-14T10:03:27.488Z,4.25
2018-03-14T10:05:54.954Z,3.72
2018-03-14T10:08:22.404Z,4.10
2018-03-14T10:10:49.811Z,3.72
2018-03-14T10:13:17.239Z,4.53
2018-03-14T10:15:44.692Z,4.82
2018-03-14T10:18:12.191Z,4.25
2018-03-14T10:20:39.622Z,5.03
2018-03-14T10:23:08.669Z,4.45
2018-03-14T10:25:36.801Z,5.60
2018-03-14T10:28:04.217Z,5.87
2018-03-14T10:30:31.676Z,4.72
2018-03-14T10:32:59.104Z,5.35
2018-03-14T10:35:26.534Z,4.32
2018-03-14T10:37:53.965Z,4.82
2018-03-14T10:40:21.448Z,5.72
2018-03-14T10:42:52.695Z,4.80
2018-03-14T10:45:20.116Z,4.85
2018-03-14T10:47:47.567Z,5.37
2018-03-14T10:50:15.024Z,4.40
2018-03-14T10:52:42.485Z,5.03
2018-03-14T10:55:09.942Z,4.30
2018-03-14T10:57:37.400Z,4.40
2018-03-14T11:00:05.698Z,7.20
2018-03-14T11:02:33.247Z,4.85
2018-03-14T11:05:00.692Z,5.75
2018-03-14T11:07:28.096Z,5.47
2018-03-14T11:09:55.547Z,5.30
2018-03-14T11:12:23.002Z,5.75
2018-03-14T11:14:50.523Z,4.68
2018-03-14T11:17:17.986Z,5.40
2018-03-14T11:19:45.438Z,5.87
2018-03-14T11:22:12.899Z,5.43
2018-03-14T11:24:40.353Z,4.75
2018-03-14T11:27:07.816Z,5.12
2018-03-14T11:29:35.270Z,4.85
2018-03-14T11:32:02.740Z,6.43
2018-03-14T11:34:30.187Z,6.93
2018-03-14T11:36:57.644Z,6.30
2018-03-14T11:39:25.277Z,6.78
2018-03-14T11:41:53.174Z,4.40
2018-03-14T11:44:20.631Z,4.37
2018-03-14T11:46:48.089Z,4.65
2018-03-14T11:49:15.549Z,4.60
2018-03-14T11:51:43.005Z,5.15
2018-03-14T11:54:10.463Z,5.43
2018-03-14T11:56:37.920Z,4.97
2018-03-14T11:59:05.380Z,4.10
2018-03-14T12:01:32.837Z,4.53
2018-03-14T12:04:05.530Z,3.75
2018-03-14T12:06:33.005Z,3.87
2018-03-14T12:09:00.432Z,4.85
2018-03-14T12:11:31.598Z,3.80
2018-03-14T12:13:59.038Z,4.63
2018-03-14T12:16:26.492Z,4.25
2018-03-14T12:18:53.894Z,5.50
2018-03-14T12:21:21.331Z,4.67
2018-03-14T12:23:48.797Z,5.43
2018-03-14T12:26:16.334Z,4.90
2018-03-14T12:28:43.793Z,5.95
2018-03-14T12:31:11.243Z,5.20
2018-03-14T12:33:38.696Z,5.12
2018-03-14T12:36:06.156Z,4.55
2018-03-14T12:38:33.612Z,6.60
2018-03-14T12:41:01.083Z,5.45
2018-03-14T12:43:31.812Z,4.80
2018-03-14T12:45:59.296Z,4.95
2018-03-14T12:48:26.729Z,4.65
2018-03-14T12:50:54.203Z,5.05
2018-03-14T12:53:21.736Z,4.75
2018-03-14T12:55:52.269Z,5.47
2018-03-14T12:58:19.726Z,4.18
2018-03-14T13:00:47.182Z,4.60
2018-03-14T13:03:14.721Z,4.35
2018-03-14T13:05:42.120Z,4.60
2018-03-14T13:08:12.244Z,4.50
2018-03-14T13:10:39.778Z,4.60
2018-03-14T13:13:07.236Z,4.55
2018-03-14T13:15:34.694Z,4.00
2018-03-14T13:18:02.165Z,4.18
2018-03-14T13:20:29.612Z,4.12
2018-03-14T13:22:57.068Z,5.03
2018-03-14T13:25:24.527Z,4.15
2018-03-14T13:27:51.985Z,4.20
2018-03-14T13:30:19.444Z,4.25
2018-03-14T13:32:48.507Z,5.37
2018-03-14T13:35:16.816Z,5.07
2018-03-14T13:37:44.279Z,4.65
2018-03-14T13:40:11.737Z,5.12
2018-03-14T13:42:39.187Z,6.32
2018-03-14T13:45:06.647Z,7.20
2018-03-14T13:47:34.123Z,6.53
2018-03-14T13:50:01.564Z,7.97
2018-03-14T13:52:29.020Z,5.32
2018-03-14T13:54:58.842Z,4.75
2018-03-14T13:57:26.393Z,5.35
2018-03-14T13:59:53.849Z,5.30
2018-03-14T14:02:21.308Z,4.53
2018-03-14T14:04:48.783Z,5.87
2018-03-14T14:07:16.225Z,5.78
2018-03-14T14:09:43.698Z,6.17
2018-03-14T14:12:11.132Z,5.50
2018-03-14T14:14:38.598Z,5.40
2018-03-14T14:17:06.056Z,5.47
2018-03-14T14:19:33.820Z,5.30
2018-03-14T14:22:01.246Z,5.85
2018-03-14T14:24:28.741Z,6.22
2018-03-14T14:26:56.203Z,5.45
2018-03-14T14:29:23.684Z,5.60
2018-03-14T14:31:51.109Z,5.82
2018-03-14T14:34:18.567Z,4.53
2018-03-14T14:36:46.025Z,5.65
2018-03-14T14:39:13.483Z,4.85
2018-03-14T14:41:40.943Z,6.12
2018-03-14T14:44:08.414Z,6.35
2018-03-14T14:46:36.033Z,6.22
2018-03-14T14:49:03.623Z,6.18
2018-03-14T14:51:34.053Z,6.43
2018-03-14T14:54:01.583Z,6.12
2018-03-14T14:56:29.069Z,6.82
2018-03-14T14:58:56.524Z,6.68
2018-03-14T15:01:23.985Z,6.18
2018-03-14T15:03:52.671Z,7.62
2018-03-14T15:06:20.144Z,6.57
2018-03-14T15:08:48.070Z,5.85
2018-03-14T15:11:15.574Z,5.68
2018-03-14T15:13:46.801Z,5.20
2018-03-14T15:16:14.251Z,6.55
2018-03-14T15:18:41.716Z,6.10
2018-03-14T15:21:09.230Z,6.70
2018-03-14T15:23:36.644Z,6.25
2018-03-14T15:26:04.094Z,6.03
2018-03-14T15:28:31.553Z,5.40
2018-03-14T15:31:03.647Z,5.32
2018-03-14T15:33:31.388Z,6.20
2018-03-14T15:36:00.689Z,5.60
2018-03-14T15:38:30.786Z,6.40
2018-03-14T15:41:06.401Z,7.20
2018-03-14T15:43:33.824Z,7.20
2018-03-14T15:46:01.273Z,7.30
2018-03-14T15:48:29.067Z,7.15
2018-03-14T15:50:56.915Z,7.57
2018-03-14T15:53:25.004Z,6.50
2018-03-14T15:55:52.455Z,5.72
2018-03-14T15:58:20.151Z,6.95
2018-03-14T16:00:47.579Z,5.60
2018-03-14T16:03:15.128Z,8.25
2018-03-14T16:05:42.680Z,6.57
2018-03-14T16:08:10.102Z,5.35
2018-03-14T16:10:37.531Z,6.25
2018-03-14T16:13:04.987Z,5.57
2018-03-14T16:15:32.428Z,5.60
2018-03-14T16:17:59.871Z,6.47
2018-03-14T16:20:27.299Z,5.60
2018-03-14T16:22:54.883Z,6.15
2018-03-14T16:25:22.300Z,6.22
2018-03-14T16:27:49.732Z,6.28
2018-03-14T16:30:17.164Z,6.15
2018-03-14T16:32:44.599Z,6.65
2018-03-14T16:35:12.017Z,6.35
2018-03-14T16:37:39.436Z,6.37
2018-03-14T16:40:06.848Z,5.95
2018-03-14T16:42:34.291Z,6.70
2018-03-14T16:45:01.908Z,6.72
2018-03-14T16:47:29.356Z,6.25
2018-03-14T16:49:56.773Z,5.68
2018-03-14T16:52:24.206Z,6.12
2018-03-14T16:54:51.625Z,6.65
2018-03-14T16:57:19.058Z,6.78
2018-03-14T16:59:46.488Z,6.05
2018-03-14T17:02:13.903Z,5.57
2018-03-14T17:04:41.328Z,6.43
2018-03-14T17:07:14.749Z,7.03
2018-03-14T17:09:42.229Z,7.18
2018-03-14T17:12:09.658Z,7.20
2018-03-14T17:14:37.099Z,7.85
2018-03-14T17:17:04.505Z,7.60
2018-03-14T17:19:31.914Z,7.60
2018-03-14T17:22:02.723Z,6.82
2018-03-14T17:24:30.152Z,6.95
2018-03-14T17:26:57.687Z,6.20
2018-03-14T17:29:25.139Z,6.50
2018-03-14T17:31:52.539Z,6.47
2018-03-14T17:34:19.976Z,6.50
2018-03-14T17:36:47.386Z,6.60
2018-03-14T17:39:14.844Z,6.82
2018-03-14T17:41:42.252Z,8.15
2018-03-14T17:44:09.693Z,7.35
2018-03-14T17:46:37.114Z,7.85
2018-03-14T17:49:04.557Z,7.25
2018-03-14T17:51:32.561Z,7.30
2018-03-14T17:53:59.989Z,8.18
2018-03-14T17:56:27.412Z,8.77
2018-03-14T17:58:54.848Z,8.70
2018-03-14T18:01:22.272Z,8.38
2018-03-14T18:03:49.695Z,7.18
2018-03-14T18:06:17.116Z,7.18
2018-03-14T18:08:44.570Z,7.35
2018-03-14T18:11:11.990Z,7.62
2018-03-14T18:13:39.404Z,6.75
2018-03-14T18:16:06.865Z,7.45
2018-03-14T18:18:34.307Z,6.62
2018-03-14T18:21:02.869Z,6.68
2018-03-14T18:23:30.457Z,6.45
2018-03-14T18:25:57.887Z,8.40
2018-03-14T18:28:25.516Z,7.37
2018-03-14T18:30:52.937Z,6.43
2018-03-14T18:33:20.384Z,7.40
2018-03-14T18:35:47.839Z,7.40
2018-03-14T18:38:15.260Z,8.15
2018-03-14T18:40:42.679Z,8.43
2018-03-14T18:43:10.179Z,8.73
2018-03-14T18:45:37.606Z,8.90
2018-03-14T18:48:05.088Z,10.40
2018-03-14T18:50:32.499Z,9.82
2018-03-14T18:52:59.961Z,14.30
2018-03-14T18:55:27.395Z,11.55
2018-03-14T18:57:54.831Z,9.18
2018-03-14T19:00:22.298Z,9.20
2018-03-14T19:02:49.705Z,9.93
2018-03-14T19:05:17.221Z,8.93
2018-03-14T19:07:44.641Z,9.57
2018-03-14T19:10:12.063Z,9.82
2018-03-14T19:12:39.475Z,9.80
2018-03-14T19:15:06.894Z,10.50
2018-03-14T19:17:34.305Z,8.45
2018-03-14T19:20:01.719Z,8.75
2018-03-14T19:22:29.464Z,8.43
2018-03-14T19:24:56.883Z,9.00
2018-03-14T19:27:24.311Z,9.13
2018-03-14T19:29:51.817Z,9.32
2018-03-14T19:32:19.270Z,9.13
2018-03-14T19:34:46.680Z,9.70
2018-03-14T19:37:14.192Z,9.35
2018-03-14T19:39:41.687Z,8.68
2018-03-14T19:42:09.120Z,8.48
2018-03-14T19:44:36.556Z,8.85
2018-03-14T19:47:03.984Z,9.38
2018-03-14T19:49:31.407Z,9.73
2018-03-14T19:51:58.945Z,8.90
2018-03-14T19:54:26.374Z,9.98
2018-03-14T19:56:53.827Z,9.23
2018-03-14T19:59:21.264Z,9.30
2018-03-14T20:01:48.690Z,10.57
2018-03-14T20:04:16.133Z,9.45
2018-03-14T20:06:43.570Z,9.15
2018-03-14T20:09:10.993Z,9.40
2018-03-14T20:11:38.415Z,8.30
2018-03-14T20:14:05.834Z,9.98
2018-03-14T20:16:33.262Z,12.45
2018-03-14T20:19:00.696Z,11.10
2018-03-14T20:21:28.135Z,8.38
2018-03-14T20:23:55.949Z,10.43
2018-03-14T20:26:23.385Z,11.12
2018-03-14T20:28:50.802Z,10.95
2018-03-14T20:31:20.213Z,9.00
2018-03-14T20:33:47.835Z,10.00
2018-03-14T20:36:15.283Z,9.82
2018-03-14T20:38:42.754Z,9.00
2018-03-14T20:41:10.185Z,11.85
2018-03-14T20:43:37.658Z,10.90
2018-03-14T20:46:05.099Z,9.90
2018-03-14T20:48:32.567Z,10.75
2018-03-14T20:51:00.055Z,10.68
2018-03-14T20:53:27.532Z,11.32
2018-03-14T20:55:54.988Z,10.88
2018-03-14T20:58:22.468Z,10.48
2018-03-14T21:00:50.212Z,9.52
2018-03-14T21:03:17.700Z,10.30
2018-03-14T21:05:45.132Z,10.60
2018-03-14T21:08:37.694Z,11.02
2018-03-14T21:11:05.216Z,10.30
2018-03-14T21:13:32.696Z,11.43
2018-03-14T21:16:01.711Z,11.93
2018-03-14T21:18:29.158Z,11.40
2018-03-14T21:21:16.778Z,10.45
2018-03-14T21:23:44.197Z,10.52
2018-03-14T21:26:11.620Z,10.50
2018-03-14T21:28:39.055Z,12.40
2018-03-14T21:31:06.575Z,13.02
2018-03-14T21:33:33.915Z,12.25
2018-03-14T21:36:01.348Z,11.77
2018-03-14T21:38:28.787Z,12.88
2018-03-14T21:40:58.113Z,13.00
2018-03-14T21:43:25.526Z,13.05
2018-03-14T21:45:52.950Z,14.70
2018-03-14T21:48:20.358Z,13.30
2018-03-14T21:50:47.776Z,12.80
2018-03-14T21:53:15.190Z,13.65
2018-03-14T21:55:42.607Z,15.27
2018-03-14T21:58:10.019Z,13.30
2018-03-14T22:02:40.479Z,13.65
2018-03-14T22:05:07.889Z,12.77
2018-03-14T22:07:35.303Z,13.75
2018-03-14T22:10:02.714Z,14.18
2018-03-14T22:12:30.125Z,13.05
2018-03-14T22:14:57.544Z,13.62
2018-03-14T22:17:24.959Z,14.50
2018-03-14T22:19:52.388Z,14.43
2018-03-14T22:22:19.778Z,14.13
2018-03-14T22:24:47.197Z,13.23
2018-03-14T22:27:14.674Z,13.10
2018-03-14T22:29:42.123Z,13.90
2018-03-14T22:32:09.525Z,13.30
2018-03-14T22:34:36.942Z,10.20
2018-03-14T22:37:04.395Z,13.82
2018-03-14T22:39:31.772Z,13.95
2018-03-14T22:41:59.183Z,12.02
2018-03-14T22:44:26.593Z,13.57
2018-03-14T22:46:53.997Z,12.60
2018-03-14T22:49:21.417Z,13.93
2018-03-14T22:51:48.826Z,14.57
2018-03-14T22:54:16.248Z,14.18
2018-03-14T22:56:43.650Z,11.85
2018-03-14T22:59:11.049Z,13.30
2018-03-14T23:01:38.470Z,12.65
2018-03-14T23:04:05.874Z,12.07
2018-03-14T23:06:33.287Z,14.23
2018-03-14T23:09:01.183Z,12.85
2018-03-14T23:11:28.595Z,13.13
2018-03-14T23:13:55.999Z,12.52
2018-03-14T23:16:23.411Z,12.05
2018-03-14T23:18:50.822Z,14.50
2018-03-14T23:21:18.242Z,14.68
2018-03-14T23:23:45.686Z,14.43
2018-03-14T23:26:13.094Z,15.20
2018-03-14T23:28:40.502Z,13.65
2018-03-14T23:31:07.928Z,16.27
2018-03-14T23:33:35.371Z,12.63
2018-03-14T23:36:02.782Z,14.60
2018-03-14T23:38:30.199Z,16.10
2018-03-14T23:40:57.610Z,14.98
2018-03-14T23:43:25.014Z,15.20
2018-03-14T23:45:52.429Z,14.98
2018-03-14T23:48:19.842Z,13.25
2018-03-14T23:50:47.266Z,14.32
2018-03-14T23:53:14.670Z,15.43
2018-03-14T23:55:42.094Z,15.02
2018-03-14T23:58:09.505Z,16.12
